createdAt,value
2024-05-09T00:02:50.861Z,15.30
2024-05-09T00:06:17.821Z,15.03
2024-05-09T00:09:44.895Z,16.20
2024-05-09T00:13:13.604Z,16.20
2024-05-09T00:16:39.732Z,14.20
2024-05-09T00:20:14.397Z,14.83
2024-05-09T00:23:46.701Z,14.17
2024-05-09T00:27:13.484Z,18.97
2024-05-09T00:30:42.358Z,14.67
2024-05-09T00:34:08.982Z,16.50
2024-05-09T00:37:35.699Z,14.90
2024-05-09T00:41:01.820Z,14.53
2024-05-09T00:44:27.861Z,17.40
2024-05-09T00:47:56.819Z,16.03
2024-05-09T00:51:23.849Z,16.30
2024-05-09T00:54:49.780Z,19.27
2024-05-09T00:58:18.737Z,16.70
2024-05-09T01:01:46.021Z,16.30
2024-05-09T01:05:14.790Z,18.00
2024-05-09T01:08:43.115Z,16.63
2024-05-09T01:12:09.780Z,14.50
2024-05-09T01:15:44.239Z,15.50
2024-05-09T01:19:18.069Z,13.00
2024-05-09T01:22:48.093Z,14.90
2024-05-09T01:26:19.269Z,16.97
2024-05-09T01:29:45.017Z,15.20
2024-05-09T01:33:12.317Z,16.20
2024-05-09T01:36:44.044Z,17.83
2024-05-09T01:40:15.044Z,15.37
2024-05-09T01:43:48.635Z,16.87
2024-05-09T01:47:14.520Z,16.00
2024-05-09T01:50:42.825Z,14.40
2024-05-09T01:54:09.669Z,16.83
2024-05-09T01:57:35.855Z,16.90
2024-05-09T02:01:05.161Z,15.50
2024-05-09T02:04:31.911Z,15.97
2024-05-09T02:07:57.884Z,16.93
2024-05-09T02:11:23.902Z,13.90
2024-05-09T02:14:50.786Z,16.53
2024-05-09T02:18:19.523Z,15.60
2024-05-09T02:21:45.790Z,13.80
2024-05-09T02:25:11.508Z,16.13
2024-05-09T02:28:37.870Z,14.30
2024-05-09T02:32:03.912Z,12.93
2024-05-09T02:35:32.516Z,15.73
2024-05-09T02:38:58.850Z,16.17
2024-05-09T02:42:24.641Z,14.37
2024-05-09T02:45:48.265Z,16.27
2024-05-09T02:49:15.926Z,15.47
2024-05-09T02:52:44.322Z,13.33
2024-05-09T02:56:08.025Z,14.80
2024-05-09T02:59:33.935Z,16.87
2024-05-09T03:03:00.073Z,15.03
2024-05-09T03:06:24.282Z,16.97
2024-05-09T03:09:53.598Z,17.47
2024-05-09T03:13:19.871Z,16.90
2024-05-09T03:16:43.393Z,20.93
2024-05-09T03:20:20.015Z,17.33
2024-05-09T03:23:51.282Z,19.43
2024-05-09T03:27:24.758Z,22.30
2024-05-09T03:30:53.147Z,18.00
2024-05-09T03:34:18.988Z,15.83
2024-05-09T03:37:45.217Z,19.90
2024-05-09T03:41:11.225Z,15.90
2024-05-09T03:44:41.759Z,18.50
2024-05-09T03:48:08.837Z,16.87
2024-05-09T03:51:32.346Z,18.87
2024-05-09T03:54:59.003Z,14.93
2024-05-09T03:58:26.405Z,17.70
2024-05-09T04:01:54.981Z,18.43
2024-05-09T04:05:18.214Z,19.50
2024-05-09T04:08:44.014Z,15.53
2024-05-09T04:12:08.510Z,17.47
2024-05-09T04:15:35.068Z,15.27
2024-05-09T04:19:09.633Z,15.70
2024-05-09T04:22:36.040Z,16.43
2024-05-09T04:25:59.418Z,16.60
2024-05-09T04:29:26.052Z,17.10
2024-05-09T04:32:51.128Z,17.60
2024-05-09T04:36:21.938Z,20.10
2024-05-09T04:39:45.133Z,19.80
2024-05-09T04:43:18.990Z,16.40
2024-05-09T04:46:45.090Z,19.70
2024-05-09T04:50:14.570Z,16.63
2024-05-09T04:53:44.081Z,21.10
2024-05-09T04:57:09.803Z,16.73
2024-05-09T05:00:38.673Z,18.60
2024-05-09T05:04:06.241Z,19.23
2024-05-09T05:07:30.416Z,19.70
2024-05-09T05:10:59.736Z,19.33
2024-05-09T05:14:23.567Z,17.13
2024-05-09T05:17:50.276Z,19.00
2024-05-09T05:21:14.555Z,17.90
2024-05-09T05:24:41.047Z,15.83
2024-05-09T05:28:10.051Z,17.93
2024-05-09T05:31:36.107Z,17.00
2024-05-09T05:34:59.302Z,18.67
2024-05-09T05:38:28.069Z,16.10
2024-05-09T05:41:51.883Z,14.60
2024-05-09T05:45:20.246Z,16.10
2024-05-09T05:48:46.201Z,18.07
2024-05-09T05:52:12.374Z,16.37
2024-05-09T05:55:38.495Z,21.20
2024-05-09T05:59:04.290Z,17.93
2024-05-09T06:02:30.134Z,15.50
2024-05-09T06:05:55.926Z,16.30
2024-05-09T06:09:19.088Z,15.40
2024-05-09T06:12:44.895Z,16.23
2024-05-09T06:16:11.113Z,19.83
2024-05-09T06:19:37.064Z,16.37
2024-05-09T06:23:03.061Z,14.47
2024-05-09T06:26:27.248Z,17.00
2024-05-09T06:29:53.020Z,13.60
2024-05-09T06:33:19.045Z,13.70
2024-05-09T06:36:47.736Z,14.13
2024-05-09T06:40:17.478Z,15.60
2024-05-09T06:43:43.478Z,14.80
2024-05-09T06:47:07.783Z,16.37
2024-05-09T06:50:37.855Z,14.50
2024-05-09T06:54:10.726Z,13.67
2024-05-09T06:57:34.564Z,16.30
2024-05-09T07:01:04.149Z,14.57
2024-05-09T07:04:30.275Z,18.83
2024-05-09T07:07:56.242Z,13.90
2024-05-09T07:11:27.431Z,13.47
2024-05-09T07:14:53.308Z,13.93
2024-05-09T07:18:18.654Z,13.80
2024-05-09T07:21:45.446Z,14.60
2024-05-09T07:25:08.730Z,13.50
2024-05-09T07:28:41.253Z,13.93
2024-05-09T07:32:08.936Z,11.93
2024-05-09T07:35:37.715Z,14.97
2024-05-09T07:39:05.607Z,11.37
2024-05-09T07:42:31.432Z,12.70
2024-05-09T07:46:00.891Z,12.47
2024-05-09T07:51:32.189Z,13.40
2024-05-09T07:53:39.998Z,11.90
2024-05-09T07:57:07.723Z,15.43
2024-05-09T08:00:34.397Z,11.83
2024-05-09T08:04:02.958Z,10.30
2024-05-09T08:07:26.692Z,11.13
2024-05-09T08:10:53.835Z,10.30
2024-05-09T08:14:17.662Z,10.63
2024-05-09T08:17:44.375Z,12.40
2024-05-09T08:21:12.970Z,8.20
2024-05-09T08:24:36.760Z,9.67
2024-05-09T08:28:03.435Z,9.60
2024-05-09T08:31:29.395Z,10.37
2024-05-09T08:34:57.128Z,10.67
2024-05-09T08:38:24.568Z,7.70
2024-05-09T08:41:53.996Z,8.93
2024-05-09T08:45:18.553Z,7.57
2024-05-09T08:48:45.681Z,9.03
2024-05-09T08:52:12.594Z,7.83
2024-05-09T08:55:43.384Z,8.90
2024-05-09T08:59:13.582Z,8.00
2024-05-09T09:02:41.297Z,7.40
2024-05-09T09:06:07.262Z,7.90
2024-05-09T09:09:43.420Z,8.67
2024-05-09T09:13:13.223Z,8.87
2024-05-09T09:16:40.049Z,8.33
2024-05-09T09:20:09.028Z,8.20
2024-05-09T09:23:42.133Z,8.30
2024-05-09T09:27:09.039Z,8.40
2024-05-09T09:30:37.950Z,8.23
2024-05-09T09:34:10.446Z,6.30
2024-05-09T09:37:35.762Z,9.70
2024-05-09T09:41:04.581Z,9.93
2024-05-09T09:44:29.591Z,8.63
2024-05-09T09:48:00.054Z,10.17
2024-05-09T09:51:25.737Z,9.40
2024-05-09T09:54:52.989Z,9.90
2024-05-09T09:58:18.129Z,8.50
2024-05-09T10:01:47.110Z,8.23
2024-05-09T10:05:13.663Z,8.93
2024-05-09T10:08:41.618Z,10.33
2024-05-09T10:12:16.003Z,11.60
2024-05-09T10:15:48.116Z,9.50
2024-05-09T10:19:24.239Z,7.93
2024-05-09T10:22:53.153Z,9.30
2024-05-09T10:26:16.245Z,8.30
2024-05-09T10:29:45.058Z,10.30
2024-05-09T10:33:11.389Z,8.23
2024-05-09T10:36:45.487Z,9.10
2024-05-09T10:40:26.372Z,9.27
2024-05-09T10:43:54.903Z,9.30
2024-05-09T10:47:24.396Z,11.23
2024-05-09T10:50:50.578Z,8.77
2024-05-09T10:54:16.350Z,9.13
2024-05-09T10:57:46.161Z,10.37
2024-05-09T11:01:10.266Z,8.00
2024-05-09T11:04:37.372Z,9.63
2024-05-09T11:08:01.063Z,9.97
2024-05-09T11:11:28.199Z,8.83
2024-05-09T11:15:00.241Z,11.73
2024-05-09T11:18:26.482Z,10.00
2024-05-09T11:21:54.725Z,10.63
2024-05-09T11:25:20.764Z,20.23
2024-05-09T11:28:45.553Z,9.60
2024-05-09T11:32:17.755Z,8.83
2024-05-09T11:35:41.422Z,11.63
2024-05-09T11:39:07.622Z,10.57
2024-05-09T11:42:33.739Z,8.83
2024-05-09T11:45:57.688Z,12.40
2024-05-09T11:49:27.457Z,9.10
2024-05-09T11:52:53.573Z,8.93
2024-05-09T11:56:19.336Z,14.60
2024-05-09T11:59:45.328Z,7.43
2024-05-09T12:03:11.683Z,10.40
2024-05-09T12:06:45.457Z,10.70
2024-05-09T12:10:16.454Z,9.83
2024-05-09T12:13:45.527Z,9.50
2024-05-09T12:17:09.122Z,8.27
2024-05-09T12:20:39.121Z,14.40
2024-05-09T12:24:06.429Z,8.60
2024-05-09T12:27:32.267Z,9.80
2024-05-09T12:30:58.710Z,10.47
2024-05-09T12:34:27.119Z,11.93
2024-05-09T12:37:51.106Z,9.73
2024-05-09T12:41:20.377Z,9.73
2024-05-09T12:44:43.470Z,9.90
2024-05-09T12:48:12.186Z,8.97
2024-05-09T12:51:39.959Z,7.90
2024-05-09T12:55:07.113Z,8.33
2024-05-09T12:58:41.466Z,10.00
2024-05-09T13:02:05.438Z,10.40
2024-05-09T13:05:31.961Z,9.30
2024-05-09T13:08:55.383Z,14.50
2024-05-09T13:12:23.356Z,9.23
2024-05-09T13:15:55.445Z,9.00
2024-05-09T13:19:22.453Z,15.30
2024-05-09T13:22:49.028Z,9.20
2024-05-09T13:26:15.877Z,8.87
2024-05-09T13:29:44.249Z,10.23
2024-05-09T13:33:14.477Z,8.70
2024-05-09T13:36:40.660Z,9.23
2024-05-09T13:40:06.851Z,11.13
2024-05-09T13:43:33.780Z,8.70
2024-05-09T13:46:57.186Z,12.10
2024-05-09T13:50:33.683Z,10.80
2024-05-09T13:54:02.935Z,10.10
2024-05-09T13:57:29.142Z,8.50
2024-05-09T14:00:55.057Z,10.63
2024-05-09T14:04:21.147Z,9.33
2024-05-09T14:07:51.472Z,11.80
2024-05-09T14:11:17.887Z,9.50
2024-05-09T14:14:41.174Z,9.20
2024-05-09T14:18:12.377Z,11.10
2024-05-09T14:21:39.725Z,11.70
2024-05-09T14:25:07.349Z,11.53
2024-05-09T14:28:33.904Z,11.63
2024-05-09T14:31:59.842Z,11.90
2024-05-09T14:35:23.218Z,9.60
2024-05-09T14:38:49.878Z,9.80
2024-05-09T14:42:16.055Z,12.50
2024-05-09T14:45:44.520Z,9.03
2024-05-09T14:49:09.865Z,11.57
2024-05-09T14:52:37.932Z,9.90
2024-05-09T14:56:01.449Z,12.30
2024-05-09T14:59:30.555Z,9.40
2024-05-09T15:02:56.891Z,8.83
2024-05-09T15:06:25.057Z,9.30
2024-05-09T15:09:51.895Z,14.13
2024-05-09T15:13:17.918Z,11.00
2024-05-09T15:16:48.496Z,9.00
2024-05-09T15:20:20.249Z,12.00
2024-05-09T15:23:50.980Z,9.00
2024-05-09T15:27:14.169Z,8.53
2024-05-09T15:30:44.128Z,9.20
2024-05-09T15:34:15.567Z,8.63
2024-05-09T15:37:38.750Z,10.80
2024-05-09T15:41:04.878Z,8.60
2024-05-09T15:44:28.333Z,7.83
2024-05-09T15:47:55.012Z,9.67
2024-05-09T15:51:23.534Z,12.43
2024-05-09T15:54:50.006Z,9.50
2024-05-09T15:58:14.228Z,8.90
2024-05-09T16:01:41.016Z,13.50
2024-05-09T16:05:07.211Z,9.23
2024-05-09T16:08:36.647Z,8.47
2024-05-09T16:12:06.087Z,7.87
2024-05-09T16:15:32.098Z,7.70
2024-05-09T16:19:00.135Z,9.03
2024-05-09T16:22:25.417Z,9.63
2024-05-09T16:25:53.796Z,8.20
2024-05-09T16:29:19.542Z,11.27
2024-05-09T16:32:45.514Z,8.70
2024-05-09T16:36:11.529Z,9.00
2024-05-09T16:39:34.781Z,8.80
2024-05-09T16:43:03.280Z,11.93
2024-05-09T16:46:28.122Z,9.30
2024-05-09T16:49:53.906Z,8.27
2024-05-09T16:53:19.720Z,11.63
2024-05-09T16:56:42.875Z,11.10
2024-05-09T17:00:18.310Z,10.33
2024-05-09T17:03:50.305Z,11.57
2024-05-09T17:07:16.244Z,10.93
2024-05-09T17:10:39.544Z,10.80
2024-05-09T17:14:05.304Z,8.23
2024-05-09T17:17:33.781Z,11.50
2024-05-09T17:20:59.580Z,10.33
2024-05-09T17:24:22.812Z,14.53
2024-05-09T17:27:48.706Z,13.63
2024-05-09T17:31:14.524Z,11.43
2024-05-09T17:34:40.418Z,8.03
2024-05-09T17:38:07.477Z,11.67
2024-05-09T17:41:33.297Z,11.27
2024-05-09T17:44:59.046Z,11.90
2024-05-09T17:48:25.452Z,11.77
2024-05-09T17:51:54.917Z,9.33
2024-05-09T17:55:21.297Z,12.40
2024-05-09T17:58:46.385Z,14.53
2024-05-09T18:02:12.302Z,12.30
2024-05-09T18:05:38.726Z,11.77
2024-05-09T18:09:07.480Z,11.00
2024-05-09T18:12:33.257Z,10.90
2024-05-09T18:15:59.303Z,11.30
2024-05-09T18:19:22.923Z,11.10
2024-05-09T18:22:50.659Z,11.63
2024-05-09T18:26:19.069Z,10.60
2024-05-09T18:29:42.161Z,9.53
2024-05-09T18:33:12.874Z,10.70
2024-05-09T18:36:36.322Z,12.87
2024-05-09T18:40:02.207Z,11.30
2024-05-09T18:43:38.018Z,11.20
2024-05-09T18:47:09.423Z,12.70
2024-05-09T18:50:37.229Z,17.07
2024-05-09T18:54:05.501Z,11.90
2024-05-09T18:57:31.594Z,11.97
2024-05-09T19:00:59.956Z,10.90
2024-05-09T19:04:34.499Z,12.90
2024-05-09T19:08:08.819Z,13.67
2024-05-09T19:11:32.669Z,10.93
2024-05-09T19:14:59.416Z,13.33
2024-05-09T19:18:34.996Z,11.10
2024-05-09T19:22:06.264Z,12.50
2024-05-09T19:25:33.270Z,10.57
2024-05-09T19:29:01.783Z,15.57
2024-05-09T19:32:35.987Z,11.43
2024-05-09T19:36:09.922Z,15.87
2024-05-09T19:39:38.109Z,10.23
2024-05-09T19:43:12.549Z,11.40
2024-05-09T19:46:40.589Z,11.97
2024-05-09T19:50:16.070Z,12.40
2024-05-09T19:53:55.045Z,13.60
2024-05-09T19:57:19.403Z,12.10
2024-05-09T20:00:45.335Z,13.57
2024-05-09T20:04:11.517Z,11.57
2024-05-09T20:07:37.874Z,11.80
2024-05-09T20:11:15.920Z,12.10
2024-05-09T20:14:43.593Z,12.70
2024-05-09T20:18:10.525Z,11.20
2024-05-09T20:21:37.467Z,14.67
2024-05-09T20:25:11.741Z,12.57
2024-05-09T20:28:46.364Z,12.03
2024-05-09T20:32:14.532Z,13.60
2024-05-09T20:35:40.436Z,11.60
2024-05-09T20:39:06.360Z,13.33
2024-05-09T20:42:34.302Z,11.83
2024-05-09T20:46:02.933Z,10.40
2024-05-09T20:49:26.948Z,13.53
2024-05-09T20:52:53.319Z,13.23
2024-05-09T20:56:19.590Z,15.20
2024-05-09T20:59:44.290Z,18.63
2024-05-09T21:03:13.992Z,12.43
2024-05-09T21:06:42.377Z,12.20
2024-05-09T21:10:15.630Z,13.93
2024-05-09T21:13:48.382Z,15.60
2024-05-09T21:17:14.690Z,13.97
2024-05-09T21:20:51.279Z,13.27
2024-05-09T21:24:14.780Z,16.80
2024-05-09T21:27:42.672Z,13.60
2024-05-09T21:31:16.412Z,13.27
2024-05-09T21:34:42.422Z,15.80
2024-05-09T21:38:11.404Z,14.27
2024-05-09T21:41:38.706Z,14.90
2024-05-09T21:45:02.980Z,15.17
2024-05-09T21:48:30.445Z,13.50
2024-05-09T21:52:01.764Z,13.33
2024-05-09T21:55:32.685Z,13.23
2024-05-09T21:58:59.384Z,14.23
2024-05-09T22:02:22.945Z,15.47
2024-05-09T22:05:50.911Z,14.43
2024-05-09T22:09:16.647Z,15.07
2024-05-09T22:12:43.845Z,13.20
2024-05-09T22:16:12.057Z,13.03
2024-05-09T22:19:35.661Z,16.30
2024-05-09T22:23:01.450Z,16.67
2024-05-09T22:26:29.586Z,15.87
2024-05-09T22:29:58.347Z,15.43
2024-05-09T22:33:21.935Z,13.33
2024-05-09T22:36:50.789Z,12.97
2024-05-09T22:40:20.748Z,13.03
2024-05-09T22:43:55.467Z,17.53
2024-05-09T22:47:31.954Z,13.10
2024-05-09T22:50:57.822Z,14.60
2024-05-09T22:54:20.911Z,13.90
2024-05-09T22:57:47.532Z,11.90
2024-05-09T23:01:18.032Z,15.33
2024-05-09T23:04:49.720Z,15.07
2024-05-09T23:08:16.564Z,16.37
2024-05-09T23:11:47.967Z,13.47
2024-05-09T23:15:13.725Z,12.50
2024-05-09T23:18:37.124Z,16.93
2024-05-09T23:22:09.586Z,14.40
2024-05-09T23:25:36.708Z,14.80
2024-05-09T23:29:02.441Z,14.83
2024-05-09T23:32:25.936Z,12.60
2024-05-09T23:35:54.143Z,13.37
2024-05-09T23:39:20.903Z,14.87
2024-05-09T23:42:49.610Z,15.70
2024-05-09T23:46:15.651Z,15.40
2024-05-09T23:49:41.056Z,15.17
2024-05-09T23:53:10.017Z,14.97
2024-05-09T23:56:43.493Z,14.17
